Главная страница
METAR-TAF:

METAR-TAF

Аэропорты :

Канзас-Сити, Миссури, США

широта: 39-17-50N, долгота: 094-43-50W, высота над уровнем моря: 312 м

Текущие метеонаблюдения

Эта сводка был подготовлена 41 минут назад, в 16:53 UTC
Ветер 7 Узел от северный
Температура 27°C
Влажность 66%
Давление 1018 hPa
Видимость: 16.1 км
Рассеянная облачность на высоте 2800 фута

METAR: KMCI 171653Z 01007KT 10SM BKN028 27/20 A3007 RMK AO2 SLP173 T02670200

Время: 12:34 (17:34 UTC)

Прогноз

Эта сводка был подготовлена 6 часа и 14 минут назад, в 11:20 UTC
Прогноз действительный с 17-го 12 UTC до 18-го 12 UTC
Ветер 3 Узел от северно-северо-западный
Видимость: 9.7 км
Отдельные облака на высоте 5000 фута
дымка
С 17-го 1300 UTC
Ветер 5 Узел от северный
Видимость: 10 км
небольшая облачность на высоте 5000 фута

TAF: KMCI 171120Z 1712/1812 33003KT 6SM BR SCT050 FM171300 35005KT P6SM FEW050

Метеонаблюдения и прогнозы для более 4000 аэропортов (сводки METAR и TAF).

Имеющиеся станции представлены на карте желтыми и красными точками.

Чтобы увидеть название станции, наведите на нее мышь.

Затем щелкните, чтобы увидеть метеонаблюдения и метеопрогнозы.

Управление картой: чтобы увеличить масштаб, щелкните зеленые кнопки с черным крестиком; чтобы уменьшить масштаб, щелкните зеленую кнопку с тире; для просмотра соседних карт щелкайте зеленые стрелки.


METAR-TAF: